Time;durP1;ratioP1;P1;durP2;ratioP2;P2;SDS_P1;SDS_P2;PMS_P1;PMS_P2;Temp;Humidity;BMP_temperature;BMP_pressure;BME280_temperature;BME280_humidity;BME280_pressure;Samples;Min_cycle;Max_cycle;Signal;HPM_P1;HPM_P2
2021/01/10 00:00:39;;;;;;;20.20;11.30;;;0.10;99.90;;;;;;5053035;28;20322;-77
2021/01/10 00:03:06;;;;;;;21.50;11.10;;;0.10;99.90;;;;;;5053161;28;20276;-77
2021/01/10 00:05:35;;;;;;;18.77;10.70;;;0.10;99.90;;;;;;5053606;28;20247;-77
2021/01/10 00:08:03;;;;;;;21.87;11.80;;;0.10;99.90;;;;;;5053316;28;20250;-77
2021/01/10 00:10:30;;;;;;;18.03;10.70;;;0.10;99.90;;;;;;5053084;28;20236;-77
2021/01/10 00:12:57;;;;;;;20.43;11.80;;;0.10;99.90;;;;;;5053143;28;20237;-77
2021/01/10 00:15:24;;;;;;;19.93;11.30;;;0.00;99.90;;;;;;5052841;28;20296;-77
2021/01/10 00:17:50;;;;;;;20.93;11.83;;;0.00;99.90;;;;;;5052705;28;20631;-77
2021/01/10 00:20:18;;;;;;;21.17;11.83;;;0.00;99.90;;;;;;5065450;28;20273;-76
2021/01/10 00:22:49;;;;;;;22.97;12.73;;;0.00;99.90;;;;;;5072602;28;20199;-77
2021/01/10 00:25:16;;;;;;;19.10;11.10;;;0.00;99.90;;;;;;5060722;28;20284;-77
2021/01/10 00:27:42;;;;;;;21.83;11.97;;;0.00;99.90;;;;;;5052654;28;20292;-78
2021/01/10 00:30:11;;;;;;;18.10;10.27;;;-0.10;99.90;;;;;;5052465;28;20327;-77
2021/01/10 00:32:37;;;;;;;24.10;13.40;;;-0.10;99.90;;;;;;5052533;28;20291;-77
2021/01/10 00:35:05;;;;;;;24.23;13.43;;;-0.10;99.90;;;;;;5052567;28;20239;-77
2021/01/10 00:37:32;;;;;;;21.07;12.17;;;-0.20;99.90;;;;;;5052460;28;20244;-77
2021/01/10 00:39:59;;;;;;;18.80;10.60;;;-0.20;99.90;;;;;;5052303;28;20252;-77
2021/01/10 00:42:25;;;;;;;21.53;11.10;;;-0.30;99.90;;;;;;5052635;28;20238;-77
2021/01/10 00:44:52;;;;;;;21.77;11.63;;;-0.30;99.90;;;;;;5052560;28;20635;-77
2021/01/10 00:47:18;;;;;;;20.80;11.50;;;-0.40;99.90;;;;;;5052289;28;20229;-77
2021/01/10 00:49:45;;;;;;;20.93;11.27;;;-0.30;99.90;;;;;;5052334;28;20237;-78
2021/01/10 00:52:12;;;;;;;20.20;11.70;;;-0.40;99.90;;;;;;5052741;28;20259;-77
2021/01/10 00:54:39;;;;;;;19.97;10.87;;;-0.40;99.90;;;;;;5052364;28;20324;-77
2021/01/10 00:57:07;;;;;;;18.73;10.67;;;-0.50;99.90;;;;;;5052294;28;20286;-78
2021/01/10 00:59:33;;;;;;;19.13;10.73;;;-0.50;99.90;;;;;;5052307;28;20241;-77
2021/01/10 01:02:00;;;;;;;22.30;10.70;;;-0.50;99.90;;;;;;5052019;28;20282;-77
2021/01/10 01:04:26;;;;;;;19.80;10.87;;;-0.40;99.90;;;;;;5067700;28;20738;-77
2021/01/10 01:06:52;;;;;;;21.60;11.13;;;-0.40;99.90;;;;;;5063865;28;20246;-78
2021/01/10 01:09:19;;;;;;;20.20;10.43;;;-0.30;99.90;;;;;;5058665;28;20238;-77
2021/01/10 01:11:45;;;;;;;18.90;10.50;;;-0.30;99.90;;;;;;5069994;28;20238;-77
2021/01/10 01:14:13;;;;;;;18.20;10.27;;;-0.30;99.90;;;;;;5078824;28;20682;-77
2021/01/10 01:16:41;;;;;;;20.37;10.33;;;-0.30;99.90;;;;;;5062816;28;20284;-77
2021/01/10 01:19:08;;;;;;;18.33;10.03;;;-0.20;99.90;;;;;;5060431;28;20274;-77
2021/01/10 01:21:34;;;;;;;19.63;10.40;;;-0.30;99.90;;;;;;5079065;28;20361;-77
2021/01/10 01:24:02;;;;;;;19.73;10.20;;;-0.30;99.90;;;;;;5078309;28;20199;-77
2021/01/10 01:26:28;;;;;;;18.63;10.50;;;-0.30;99.90;;;;;;5078899;28;20266;-77
2021/01/10 01:28:55;;;;;;;19.57;9.93;;;-0.30;99.90;;;;;;5078268;28;20709;-78
2021/01/10 01:31:24;;;;;;;18.53;9.97;;;-0.40;99.90;;;;;;5078964;28;20282;-77
2021/01/10 01:33:52;;;;;;;16.57;9.50;;;-0.40;99.90;;;;;;5078891;28;20227;-77
2021/01/10 01:36:23;;;;;;;17.93;9.23;;;-0.20;99.90;;;;;;5078911;28;20236;-77
2021/01/10 01:38:51;;;;;;;18.33;9.97;;;-0.40;99.90;;;;;;5078507;28;20200;-77
2021/01/10 01:41:17;;;;;;;17.97;9.13;;;-0.30;99.90;;;;;;5078554;28;20315;-77
2021/01/10 01:43:44;;;;;;;15.87;8.87;;;-0.40;99.90;;;;;;5078882;28;20232;-77
2021/01/10 01:46:15;;;;;;;17.73;9.50;;;-0.40;99.90;;;;;;5078396;28;20275;-77
2021/01/10 01:48:43;;;;;;;17.50;9.57;;;-0.40;99.90;;;;;;5078780;28;20230;-77
2021/01/10 01:51:09;;;;;;;15.97;8.90;;;-0.40;99.90;;;;;;5078877;28;20668;-77
2021/01/10 01:53:36;;;;;;;15.77;8.93;;;-0.40;99.90;;;;;;5078457;28;20292;-77
2021/01/10 01:56:02;;;;;;;18.77;9.50;;;-0.40;99.90;;;;;;5078568;28;20237;-77
2021/01/10 01:58:28;;;;;;;18.37;9.53;;;-0.40;99.90;;;;;;5078975;28;20244;-77
2021/01/10 02:00:55;;;;;;;16.83;8.80;;;-0.40;99.90;;;;;;5078516;28;20264;-77
2021/01/10 02:03:29;;;;;;;17.07;9.50;;;-0.50;99.90;;;;;;5078525;28;20240;-77
2021/01/10 02:06:02;;;;;;;17.67;9.07;;;-0.40;99.90;;;;;;5078085;28;20316;-77
2021/01/10 02:08:32;;;;;;;17.67;8.80;;;-0.40;99.90;;;;;;5078518;28;20236;-77
2021/01/10 02:11:00;;;;;;;15.33;8.60;;;-0.40;99.90;;;;;;5078242;28;20246;-77
2021/01/10 02:13:30;;;;;;;19.53;9.23;;;-0.40;99.90;;;;;;5078371;28;20251;-77
2021/01/10 02:15:58;;;;;;;15.93;9.23;;;-0.40;99.90;;;;;;5069571;28;20245;-77
2021/01/10 02:18:25;;;;;;;17.93;9.20;;;-0.40;99.90;;;;;;5054548;28;20721;-77
2021/01/10 02:20:53;;;;;;;19.40;9.03;;;-0.40;99.90;;;;;;5071805;28;20256;-77
2021/01/10 02:23:25;;;;;;;16.30;8.57;;;-0.50;99.90;;;;;;5074852;28;20288;-77
2021/01/10 02:25:53;;;;;;;18.93;8.40;;;-0.60;99.90;;;;;;5075399;28;20237;-77
2021/01/10 02:28:23;;;;;;;18.63;8.07;;;-0.60;99.90;;;;;;5074889;28;20630;-76
2021/01/10 02:30:51;;;;;;;15.97;8.33;;;-0.60;99.90;;;;;;5071176;28;20237;-76
2021/01/10 02:33:25;;;;;;;13.87;7.93;;;-0.50;99.90;;;;;;5067481;28;20237;-77
2021/01/10 02:35:52;;;;;;;16.13;8.37;;;-0.50;99.90;;;;;;5054788;28;20231;-77
2021/01/10 02:38:42;;;;;;;15.53;8.50;;;-0.40;99.90;;;;;;5054664;28;20635;-77
2021/01/10 02:41:34;;;;;;;14.10;7.50;;;-0.40;99.90;;;;;;5054955;28;20259;-77
2021/01/10 02:44:11;;;;;;;15.37;8.03;;;-0.50;99.90;;;;;;5054696;28;20233;-78
2021/01/10 02:46:41;;;;;;;13.47;7.83;;;-0.60;99.90;;;;;;5054759;28;20334;-77
2021/01/10 02:49:07;;;;;;;16.13;8.13;;;-0.50;99.90;;;;;;5065823;28;20288;-77
2021/01/10 02:51:34;;;;;;;20.47;8.93;;;-0.50;99.90;;;;;;5074305;28;20286;-77
2021/01/10 02:54:00;;;;;;;19.57;8.90;;;-0.50;99.90;;;;;;5074932;28;20639;-77
2021/01/10 02:56:31;;;;;;;16.00;8.93;;;-0.50;99.90;;;;;;5074471;28;20235;-77
2021/01/10 02:58:58;;;;;;;15.40;8.60;;;-0.60;99.90;;;;;;5074384;28;20239;-77
2021/01/10 03:01:25;;;;;;;17.53;8.80;;;-0.60;99.90;;;;;;5074072;28;20269;-77
2021/01/10 03:03:53;;;;;;;17.80;8.93;;;-0.60;99.90;;;;;;5074570;28;20243;-77
2021/01/10 03:06:20;;;;;;;16.13;8.87;;;-0.60;99.90;;;;;;5036305;28;20286;-76
2021/01/10 03:08:48;;;;;;;17.47;9.13;;;-0.60;99.90;;;;;;5033912;28;20689;-77
2021/01/10 03:11:14;;;;;;;17.67;9.13;;;-0.70;99.90;;;;;;5033841;28;20228;-77
2021/01/10 03:13:42;;;;;;;18.80;9.07;;;-0.70;99.90;;;;;;5034020;28;20282;-77
2021/01/10 03:16:09;;;;;;;18.37;8.83;;;-0.60;99.90;;;;;;5044349;28;20267;-76
2021/01/10 03:18:35;;;;;;;18.43;9.87;;;-0.70;99.90;;;;;;5054098;28;20204;-77
2021/01/10 03:21:02;;;;;;;16.23;8.83;;;-0.70;99.90;;;;;;5072280;28;20259;-77
2021/01/10 03:23:28;;;;;;;18.40;9.97;;;-0.60;99.90;;;;;;5073952;28;20286;-78
2021/01/10 03:25:55;;;;;;;20.03;9.67;;;-0.60;99.90;;;;;;5074108;28;20208;-77
2021/01/10 03:28:21;;;;;;;18.40;9.50;;;-0.60;99.90;;;;;;5073740;28;20227;-77
2021/01/10 03:30:48;;;;;;;19.90;9.77;;;-0.70;99.90;;;;;;5073662;28;20805;-77
2021/01/10 03:33:15;;;;;;;18.93;9.60;;;-0.70;99.90;;;;;;5072493;28;20236;-77
2021/01/10 03:35:41;;;;;;;21.87;10.13;;;-0.70;99.90;;;;;;5073812;28;20303;-77
2021/01/10 03:38:08;;;;;;;18.80;9.57;;;-0.80;99.90;;;;;;5073714;28;20232;-77
2021/01/10 03:40:35;;;;;;;20.70;9.80;;;-0.80;99.90;;;;;;5073866;28;20448;-77
2021/01/10 03:43:01;;;;;;;16.97;9.20;;;-0.70;99.90;;;;;;5073810;28;20242;-77
2021/01/10 03:45:28;;;;;;;19.53;9.83;;;-0.90;99.90;;;;;;5073005;28;20341;-77
2021/01/10 03:47:55;;;;;;;20.73;10.13;;;-0.90;99.90;;;;;;5072948;28;20235;-77
2021/01/10 03:50:21;;;;;;;20.13;9.87;;;-0.90;99.90;;;;;;5073133;28;20230;-77
2021/01/10 03:52:48;;;;;;;17.77;10.03;;;-1.10;99.90;;;;;;5073392;28;20231;-77
2021/01/10 03:55:14;;;;;;;21.50;10.57;;;-1.10;99.90;;;;;;5072949;28;20235;-77
2021/01/10 03:57:41;;;;;;;17.50;10.10;;;-0.90;99.90;;;;;;5073509;28;20238;-77
2021/01/10 04:00:10;;;;;;;19.23;9.83;;;-0.90;99.90;;;;;;5073015;28;20259;-77
2021/01/10 04:02:37;;;;;;;20.40;10.67;;;-1.00;99.90;;;;;;5072615;28;20690;-77
2021/01/10 04:05:05;;;;;;;22.33;10.37;;;-0.80;99.90;;;;;;5073311;28;20295;-77
2021/01/10 04:07:32;;;;;;;18.93;10.03;;;-0.70;99.90;;;;;;5064570;28;20670;-77
2021/01/10 04:09:58;;;;;;;21.07;10.40;;;-0.70;99.90;;;;;;5053179;28;20239;-77
2021/01/10 04:12:25;;;;;;;20.20;10.37;;;-0.70;99.90;;;;;;5070687;28;20674;-77
2021/01/10 04:14:55;;;;;;;21.30;10.77;;;-0.70;99.90;;;;;;5071208;28;20665;-77
2021/01/10 04:17:25;;;;;;;19.90;10.53;;;-0.70;99.90;;;;;;5072357;28;20200;-77
2021/01/10 04:19:51;;;;;;;19.20;10.53;;;-0.70;99.90;;;;;;5072295;28;20235;-77
2021/01/10 04:22:19;;;;;;;17.87;9.70;;;-0.70;99.90;;;;;;5072717;28;20230;-77
2021/01/10 04:24:45;;;;;;;19.13;10.10;;;-0.70;99.90;;;;;;5072904;28;20195;-77
2021/01/10 04:27:12;;;;;;;19.00;10.03;;;-0.60;99.90;;;;;;5072711;28;20694;-77
2021/01/10 04:29:38;;;;;;;21.87;10.50;;;-0.60;99.90;;;;;;5072410;28;20192;-77
2021/01/10 04:32:05;;;;;;;18.77;9.93;;;-0.60;99.90;;;;;;5072682;28;20230;-77
2021/01/10 04:34:31;;;;;;;18.67;10.47;;;-0.60;99.90;;;;;;5072672;28;20243;-77
2021/01/10 04:36:58;;;;;;;20.43;9.80;;;-0.60;99.90;;;;;;5072287;28;20234;-77
2021/01/10 04:39:25;;;;;;;18.70;9.17;;;-0.60;99.90;;;;;;5072516;28;20200;-77
2021/01/10 04:41:53;;;;;;;17.73;9.53;;;-0.70;99.90;;;;;;5072051;28;20321;-77
2021/01/10 04:44:23;;;;;;;20.37;10.20;;;-0.70;99.90;;;;;;5072330;28;20275;-77
2021/01/10 04:46:50;;;;;;;18.63;10.00;;;-0.60;99.90;;;;;;5072414;28;20282;-77
2021/01/10 04:49:19;;;;;;;18.00;10.03;;;-0.70;99.90;;;;;;5072795;28;20206;-77
2021/01/10 04:51:47;;;;;;;21.00;10.30;;;-0.60;99.90;;;;;;5072622;28;20219;-78
2021/01/10 04:54:15;;;;;;;21.17;10.00;;;-0.60;99.90;;;;;;5072842;28;20207;-77
2021/01/10 04:56:43;;;;;;;19.97;10.47;;;-0.70;99.90;;;;;;5072161;28;20199;-78
2021/01/10 04:59:11;;;;;;;19.20;10.20;;;-0.60;99.90;;;;;;5072519;28;20199;-77
2021/01/10 05:01:45;;;;;;;19.43;10.37;;;-0.60;99.90;;;;;;5071904;28;20251;-77
2021/01/10 05:04:11;;;;;;;17.13;10.03;;;-0.60;99.90;;;;;;5070340;28;20199;-77
2021/01/10 05:06:38;;;;;;;21.27;10.57;;;-0.70;99.90;;;;;;5058160;28;20691;-77
2021/01/10 05:09:06;;;;;;;19.30;10.50;;;-0.60;99.90;;;;;;5052735;28;20255;-77
2021/01/10 05:11:32;;;;;;;20.00;10.43;;;-0.60;99.90;;;;;;5052446;28;20232;-77
2021/01/10 05:14:00;;;;;;;23.43;11.13;;;-0.60;99.90;;;;;;5052130;28;20201;-77
2021/01/10 05:16:30;;;;;;;21.60;10.13;;;-0.60;99.90;;;;;;5051065;28;20677;-77
2021/01/10 05:18:57;;;;;;;18.97;10.00;;;-0.60;99.90;;;;;;5053283;28;20701;-77
2021/01/10 05:21:23;;;;;;;21.37;10.80;;;-0.70;99.90;;;;;;5072028;28;20824;-77
2021/01/10 05:23:51;;;;;;;19.03;10.60;;;-0.80;99.90;;;;;;5071975;28;20286;-77
2021/01/10 05:26:19;;;;;;;21.60;10.50;;;-0.80;99.90;;;;;;5072477;28;20203;-77
2021/01/10 05:28:45;;;;;;;19.73;10.40;;;-0.80;99.90;;;;;;5071712;28;20553;-77
2021/01/10 05:31:13;;;;;;;20.10;10.93;;;-0.80;99.90;;;;;;5071679;28;20222;-77
2021/01/10 05:33:50;;;;;;;21.10;11.17;;;-0.80;99.90;;;;;;5072400;28;20231;-77
2021/01/10 05:36:28;;;;;;;19.50;10.87;;;-0.70;99.90;;;;;;5072348;28;20242;-77
2021/01/10 05:38:55;;;;;;;19.70;10.97;;;-0.70;99.90;;;;;;5072091;28;20235;-77
2021/01/10 05:41:23;;;;;;;19.00;10.70;;;-0.70;99.90;;;;;;5072545;28;20306;-77
2021/01/10 05:44:00;;;;;;;20.50;11.10;;;-0.80;99.90;;;;;;5071532;28;20676;-77
2021/01/10 05:46:31;;;;;;;21.87;11.63;;;-0.80;99.90;;;;;;5072099;28;20204;-77
2021/01/10 05:48:59;;;;;;;20.30;10.23;;;-0.70;99.90;;;;;;5071893;28;20195;-77
2021/01/10 05:51:28;;;;;;;19.73;10.20;;;-0.70;99.90;;;;;;5072234;28;20219;-77
2021/01/10 05:53:55;;;;;;;21.97;11.37;;;-0.80;99.90;;;;;;5074475;28;20699;-77
2021/01/10 05:56:21;;;;;;;21.90;11.13;;;-0.70;99.90;;;;;;5075765;28;20671;-78
2021/01/10 05:58:55;;;;;;;20.80;11.13;;;-0.70;99.90;;;;;;5075173;28;20209;-77
2021/01/10 06:01:23;;;;;;;19.40;10.70;;;-0.60;99.90;;;;;;5075276;28;20262;-77
2021/01/10 06:03:51;;;;;;;20.60;11.33;;;-0.70;99.90;;;;;;5075439;28;20227;-77
2021/01/10 06:06:18;;;;;;;21.83;10.57;;;-0.60;99.90;;;;;;5075201;28;20199;-77
2021/01/10 06:08:44;;;;;;;20.47;11.70;;;-0.60;99.90;;;;;;5057040;28;20247;-77
2021/01/10 06:11:22;;;;;;;19.40;10.67;;;-0.40;99.90;;;;;;5055724;28;20659;-77
2021/01/10 06:13:52;;;;;;;21.67;11.10;;;-0.50;99.90;;;;;;5055091;28;20237;-77
2021/01/10 06:16:19;;;;;;;17.97;10.77;;;-0.50;99.90;;;;;;5055443;28;20252;-77
2021/01/10 06:18:47;;;;;;;22.37;10.97;;;-0.40;99.90;;;;;;5062928;28;20240;-77
2021/01/10 06:21:18;;;;;;;19.73;10.90;;;-0.40;99.90;;;;;;5075383;28;20259;-77
2021/01/10 06:23:47;;;;;;;18.43;10.80;;;-0.40;99.90;;;;;;5075111;28;20203;-77
2021/01/10 06:26:17;;;;;;;20.40;10.57;;;-0.30;99.90;;;;;;5075436;28;20232;-77
2021/01/10 06:28:56;;;;;;;21.90;11.07;;;-0.30;99.90;;;;;;5075006;28;20229;-77
2021/01/10 06:31:33;;;;;;;17.33;9.87;;;-0.40;99.90;;;;;;5074816;28;20682;-77
2021/01/10 06:34:05;;;;;;;18.50;10.50;;;-0.40;99.90;;;;;;5075037;28;20230;-77
2021/01/10 06:36:35;;;;;;;19.43;11.23;;;-0.50;99.90;;;;;;5075129;28;20285;-77
2021/01/10 06:39:10;;;;;;;19.87;10.70;;;-0.60;99.90;;;;;;5074589;28;20235;-77
2021/01/10 06:42:11;;;;;;;20.37;10.70;;;-0.60;99.90;;;;;;5073819;28;20255;-77
2021/01/10 06:44:43;;;;;;;21.37;10.77;;;-0.80;99.90;;;;;;5074720;28;20666;-78
2021/01/10 06:47:20;;;;;;;21.67;11.33;;;-0.70;99.90;;;;;;5074520;28;20242;-77
2021/01/10 06:49:46;;;;;;;25.33;11.10;;;-0.80;99.90;;;;;;5074913;28;20244;-78
2021/01/10 06:52:15;;;;;;;20.53;9.97;;;-0.80;99.90;;;;;;5074599;28;20241;-77
2021/01/10 06:54:43;;;;;;;23.37;11.90;;;-0.80;99.90;;;;;;5074347;28;20242;-77
2021/01/10 06:57:10;;;;;;;23.27;11.23;;;-0.90;99.90;;;;;;5073553;28;20214;-78
2021/01/10 06:59:56;;;;;;;22.40;11.20;;;-1.00;99.90;;;;;;5074153;28;20208;-77
2021/01/10 07:02:22;;;;;;;21.93;11.03;;;-1.00;99.90;;;;;;5074580;28;20228;-77
2021/01/10 07:05:05;;;;;;;18.93;10.60;;;-1.20;99.90;;;;;;5073591;28;20687;-78
2021/01/10 07:07:35;;;;;;;22.07;11.73;;;-1.20;99.90;;;;;;5066495;28;20301;-77
2021/01/10 07:10:03;;;;;;;20.03;11.40;;;-1.20;99.90;;;;;;5054006;28;20667;-77
2021/01/10 07:12:30;;;;;;;26.33;12.50;;;-1.30;99.90;;;;;;5054225;28;20239;-77
2021/01/10 07:15:27;;;;;;;18.80;11.60;;;-1.30;99.90;;;;;;5054177;28;20300;-77
2021/01/10 07:18:05;;;;;;;24.87;11.40;;;-1.40;99.90;;;;;;5053896;28;20239;-77
2021/01/10 07:20:33;;;;;;;19.17;10.47;;;-1.40;99.90;;;;;;5068376;28;20263;-77
2021/01/10 07:23:28;;;;;;;20.27;11.20;;;-1.50;99.90;;;;;;5073552;28;20705;-77
2021/01/10 07:25:55;;;;;;;19.73;11.43;;;-1.50;99.90;;;;;;5073906;28;20246;-77
2021/01/10 07:28:42;;;;;;;24.50;12.07;;;-1.60;99.90;;;;;;5073815;28;20716;-77
2021/01/10 07:31:14;;;;;;;24.63;12.03;;;-1.70;99.90;;;;;;5073446;28;20195;-77
2021/01/10 07:33:41;;;;;;;21.73;11.10;;;-1.70;99.90;;;;;;5055886;28;20313;-77
2021/01/10 07:36:08;;;;;;;22.23;11.47;;;-1.70;99.90;;;;;;5073778;28;20280;-77
2021/01/10 07:38:37;;;;;;;21.03;11.47;;;-1.80;99.90;;;;;;5073819;28;20203;-77
2021/01/10 07:41:23;;;;;;;21.13;11.63;;;-1.80;99.90;;;;;;5073115;28;20314;-77
2021/01/10 07:43:52;;;;;;;23.43;11.63;;;-1.90;99.90;;;;;;5073735;28;20621;-77
2021/01/10 07:47:00;;;;;;;24.77;12.30;;;-1.80;99.90;;;;;;5073443;28;20230;-78
2021/01/10 07:49:46;;;;;;;20.90;11.83;;;-1.90;99.90;;;;;;5071704;28;20541;-80
2021/01/10 07:52:13;;;;;;;21.30;11.40;;;-2.00;99.90;;;;;;5073272;28;20222;-79
2021/01/10 07:54:56;;;;;;;23.30;12.17;;;-2.00;99.90;;;;;;5073290;28;20231;-80
2021/01/10 07:57:27;;;;;;;21.60;11.20;;;-1.90;99.90;;;;;;5073118;28;20713;-79
2021/01/10 08:00:17;;;;;;;27.03;12.47;;;-1.80;99.90;;;;;;5073163;28;20285;-80
2021/01/10 08:02:51;;;;;;;22.93;11.77;;;-1.70;99.90;;;;;;5073064;28;20936;-82
2021/01/10 08:05:19;;;;;;;22.93;12.40;;;-1.80;99.90;;;;;;5073242;28;20285;-80
2021/01/10 08:07:51;;;;;;;24.87;12.90;;;-1.70;99.90;;;;;;5045453;28;20641;-81
2021/01/10 08:10:19;;;;;;;24.30;13.10;;;-1.50;99.90;;;;;;5052784;28;20552;-78
2021/01/10 08:12:45;;;;;;;26.13;13.23;;;-1.30;99.90;;;;;;5053159;28;20206;-77
2021/01/10 08:15:13;;;;;;;23.33;13.60;;;-1.10;99.90;;;;;;5052111;28;20305;-78
2021/01/10 08:17:39;;;;;;;21.67;12.23;;;-0.70;99.90;;;;;;5052985;28;20587;-77
2021/01/10 08:20:08;;;;;;;22.57;12.27;;;-0.40;99.90;;;;;;5063528;28;20271;-79
2021/01/10 08:22:35;;;;;;;22.57;12.93;;;0.00;99.90;;;;;;5072620;28;20268;-78
2021/01/10 08:25:02;;;;;;;21.67;12.53;;;0.40;99.90;;;;;;5072229;28;20678;-78
2021/01/10 08:27:29;;;;;;;19.70;12.27;;;0.80;99.90;;;;;;5072703;28;20240;-78
2021/01/10 08:29:55;;;;;;;16.30;10.70;;;1.10;99.90;;;;;;5072669;28;20242;-79
2021/01/10 08:32:22;;;;;;;15.67;10.30;;;1.30;99.90;;;;;;5072599;28;20230;-79
2021/01/10 08:34:51;;;;;;;15.50;9.67;;;1.60;99.90;;;;;;5072434;28;20258;-79
2021/01/10 08:37:21;;;;;;;16.27;9.77;;;1.80;99.90;;;;;;5072816;28;20326;-78
2021/01/10 08:39:57;;;;;;;15.60;9.80;;;2.30;99.90;;;;;;5072409;28;20237;-79
2021/01/10 08:42:23;;;;;;;14.20;9.33;;;2.80;99.90;;;;;;5069068;28;20325;-79
2021/01/10 08:44:51;;;;;;;13.33;9.40;;;3.00;99.90;;;;;;5071721;28;20238;-79
2021/01/10 08:47:17;;;;;;;14.97;9.27;;;3.20;99.90;;;;;;5054155;28;20200;-79
2021/01/10 08:49:44;;;;;;;13.80;9.20;;;3.70;99.90;;;;;;5072172;28;20720;-79
2021/01/10 08:52:12;;;;;;;14.90;9.60;;;4.30;99.90;;;;;;5067124;28;20197;-79
2021/01/10 08:54:38;;;;;;;13.10;9.30;;;4.50;99.90;;;;;;5052464;28;20209;-79
2021/01/10 08:57:05;;;;;;;13.80;9.07;;;4.90;99.90;;;;;;5051760;28;20735;-80
2021/01/10 08:59:38;;;;;;;13.17;8.63;;;5.40;99.90;;;;;;5060897;28;20239;-79
2021/01/10 09:02:10;;;;;;;14.83;9.27;;;6.00;99.90;;;;;;5055139;28;20279;-80
2021/01/10 09:04:40;;;;;;;15.07;9.20;;;6.30;99.90;;;;;;5071960;28;20617;-79
2021/01/10 09:07:17;;;;;;;12.97;9.00;;;6.10;99.90;;;;;;5065254;28;20681;-80
2021/01/10 09:09:47;;;;;;;13.33;9.10;;;6.40;99.90;;;;;;5057686;28;20234;-78
2021/01/10 09:12:20;;;;;;;12.53;9.97;;;7.10;99.90;;;;;;5071152;28;20728;-79
2021/01/10 09:14:52;;;;;;;13.57;10.00;;;7.00;99.90;;;;;;5071724;28;20682;-80
2021/01/10 09:17:25;;;;;;;14.63;9.57;;;7.40;99.90;;;;;;5070807;28;20236;-80
2021/01/10 09:19:55;;;;;;;12.90;8.90;;;8.20;99.90;;;;;;5070647;28;20239;-80
2021/01/10 09:22:27;;;;;;;10.40;8.27;;;8.40;99.90;;;;;;5058160;28;20302;-80
2021/01/10 09:24:54;;;;;;;12.30;8.40;;;8.30;99.90;;;;;;5058698;28;20246;-80
2021/01/10 09:27:20;;;;;;;11.03;7.90;;;8.00;99.90;;;;;;5061243;28;20230;-80
2021/01/10 09:29:47;;;;;;;12.43;8.43;;;7.40;99.90;;;;;;5061365;28;20249;-80
2021/01/10 09:32:22;;;;;;;11.50;7.63;;;6.70;99.90;;;;;;5058961;28;20226;-80
2021/01/10 09:34:55;;;;;;;14.40;8.03;;;6.50;99.90;;;;;;5050621;28;20203;-80
2021/01/10 09:37:27;;;;;;;11.70;7.83;;;6.60;99.90;;;;;;5056091;28;21684;-81
2021/01/10 09:39:54;;;;;;;9.87;7.87;;;6.50;99.90;;;;;;5068395;28;20697;-78
2021/01/10 09:42:20;;;;;;;11.30;7.83;;;6.40;99.90;;;;;;5064700;28;20295;-80
2021/01/10 09:44:54;;;;;;;12.10;7.40;;;6.90;99.90;;;;;;5063292;28;20287;-80
2021/01/10 09:47:35;;;;;;;9.40;7.50;;;6.70;99.90;;;;;;5062780;28;20203;-80
2021/01/10 09:50:02;;;;;;;10.30;7.63;;;6.70;99.90;;;;;;5054624;28;20241;-80
2021/01/10 09:52:28;;;;;;;11.90;8.00;;;6.80;99.90;;;;;;5057240;28;20190;-80
2021/01/10 09:54:58;;;;;;;12.27;8.03;;;7.00;99.90;;;;;;5060207;28;20203;-78
2021/01/10 09:57:24;;;;;;;13.53;8.30;;;6.70;99.90;;;;;;5061970;28;20227;-79
2021/01/10 10:00:04;;;;;;;24.60;15.90;;;6.60;99.90;;;;;;5061354;28;20674;-80
2021/01/10 10:02:36;;;;;;;13.17;10.13;;;6.50;99.90;;;;;;5061137;28;20305;-80
2021/01/10 10:05:12;;;;;;;11.00;8.00;;;6.70;99.90;;;;;;5063107;28;20239;-80
2021/01/10 10:07:41;;;;;;;17.30;7.80;;;6.20;99.90;;;;;;5063161;28;20234;-81
2021/01/10 10:10:19;;;;;;;12.27;8.07;;;6.50;99.90;;;;;;5060253;28;20209;-80
2021/01/10 10:12:52;;;;;;;13.83;8.13;;;6.50;99.90;;;;;;5058418;28;20197;-80
2021/01/10 10:15:18;;;;;;;20.33;13.70;;;6.40;99.90;;;;;;5058805;28;20200;-80
2021/01/10 10:17:46;;;;;;;17.60;11.93;;;6.70;99.90;;;;;;5056443;28;20227;-80
2021/01/10 10:20:12;;;;;;;16.47;9.60;;;6.90;99.90;;;;;;5056634;28;20272;-81
2021/01/10 10:22:40;;;;;;;11.00;8.03;;;6.90;99.90;;;;;;5056967;28;20254;-81
2021/01/10 10:25:09;;;;;;;11.67;7.63;;;7.30;99.90;;;;;;5062227;28;20229;-80
2021/01/10 10:27:52;;;;;;;12.60;8.17;;;7.20;99.90;;;;;;5053796;28;20274;-80
2021/01/10 10:30:20;;;;;;;9.90;7.00;;;7.30;99.90;;;;;;5055945;28;20252;-81
2021/01/10 10:32:47;;;;;;;12.73;7.10;;;7.30;99.90;;;;;;5051030;28;20297;-80
2021/01/10 10:35:13;;;;;;;10.87;7.10;;;7.30;99.90;;;;;;5057144;28;20227;-81
2021/01/10 10:37:40;;;;;;;10.77;7.20;;;7.60;99.90;;;;;;5061211;28;20715;-81
2021/01/10 10:40:08;;;;;;;9.43;6.50;;;7.60;99.90;;;;;;5064380;28;20683;-81
2021/01/10 10:42:34;;;;;;;12.43;7.90;;;7.90;99.90;;;;;;5062667;28;20994;-81
2021/01/10 10:45:00;;;;;;;14.47;7.70;;;7.90;99.90;;;;;;5064979;28;20294;-81
2021/01/10 10:47:27;;;;;;;10.70;8.43;;;8.00;99.90;;;;;;5051280;28;20353;-81
2021/01/10 10:49:54;;;;;;;7.63;5.93;;;7.90;99.90;;;;;;5067205;28;20222;-82
2021/01/10 10:52:20;;;;;;;10.67;6.70;;;8.10;99.90;;;;;;5044269;28;20234;-81
2021/01/10 10:54:47;;;;;;;9.37;6.90;;;7.60;99.90;;;;;;5055342;28;20763;-81
2021/01/10 10:57:13;;;;;;;10.33;6.70;;;7.90;99.90;;;;;;5059195;28;20237;-81
2021/01/10 10:59:40;;;;;;;9.53;7.03;;;8.50;99.90;;;;;;5070395;28;22112;-80
2021/01/10 11:02:09;;;;;;;9.47;7.50;;;8.40;99.90;;;;;;5066020;28;20353;-81
2021/01/10 11:04:38;;;;;;;10.37;7.43;;;8.60;99.90;;;;;;5051268;28;20196;-81
2021/01/10 11:07:05;;;;;;;9.67;6.70;;;8.90;99.90;;;;;;5063152;28;20700;-81
2021/01/10 11:09:32;;;;;;;12.50;8.67;;;9.10;99.90;;;;;;5066721;28;20281;-78
2021/01/10 11:11:58;;;;;;;14.97;9.63;;;8.80;99.90;;;;;;5055025;28;20223;-81
2021/01/10 11:14:25;;;;;;;15.07;9.90;;;8.90;99.90;;;;;;5063204;28;20227;-81
2021/01/10 11:16:52;;;;;;;10.73;8.63;;;8.60;99.90;;;;;;5066869;28;20234;-80
2021/01/10 11:19:20;;;;;;;10.37;8.23;;;8.60;99.90;;;;;;5058367;28;20238;-80
2021/01/10 11:21:48;;;;;;;10.80;8.40;;;8.70;99.90;;;;;;5056143;28;20220;-81
2021/01/10 11:24:16;;;;;;;10.00;7.10;;;8.70;99.90;;;;;;5055204;28;20218;-81
2021/01/10 11:26:44;;;;;;;10.30;7.47;;;9.10;99.90;;;;;;5061539;28;20237;-79
2021/01/10 11:29:12;;;;;;;11.13;6.67;;;9.30;99.90;;;;;;5060226;28;20679;-79
2021/01/10 11:31:39;;;;;;;13.07;9.33;;;9.20;99.90;;;;;;5056644;28;20231;-79
2021/01/10 11:34:08;;;;;;;14.77;11.10;;;8.10;99.90;;;;;;5055498;28;20285;-78
2021/01/10 11:36:36;;;;;;;12.30;8.53;;;7.20;99.90;;;;;;5062666;28;20233;-80
2021/01/10 11:39:04;;;;;;;10.33;7.80;;;7.10;99.90;;;;;;5062999;28;20614;-79
2021/01/10 11:41:31;;;;;;;14.07;9.13;;;6.90;99.90;;;;;;5056836;28;20247;-79
2021/01/10 11:43:57;;;;;;;12.27;6.90;;;6.80;99.90;;;;;;5060794;28;20724;-79
2021/01/10 11:46:24;;;;;;;9.70;7.33;;;7.70;99.90;;;;;;5056191;28;20234;-78
2021/01/10 11:48:50;;;;;;;9.43;7.13;;;7.40;99.90;;;;;;5047012;28;20306;-77
2021/01/10 11:51:18;;;;;;;10.87;8.13;;;7.40;99.90;;;;;;5051826;28;20240;-78
2021/01/10 11:53:45;;;;;;;15.07;10.37;;;8.20;99.90;;;;;;5065347;28;20667;-78
2021/01/10 11:56:14;;;;;;;14.60;9.87;;;8.80;99.90;;;;;;5054021;28;20233;-77
2021/01/10 11:58:41;;;;;;;14.43;10.30;;;8.90;99.90;;;;;;5048374;28;20205;-78
2021/01/10 12:01:08;;;;;;;21.27;15.37;;;9.10;99.90;;;;;;5056412;28;20266;-77
2021/01/10 12:03:35;;;;;;;17.53;13.03;;;9.40;99.90;;;;;;5064087;28;20234;-78
2021/01/10 12:06:02;;;;;;;36.07;22.97;;;9.50;99.90;;;;;;5036873;28;20235;-77
2021/01/10 12:08:29;;;;;;;12.60;8.07;;;10.00;99.90;;;;;;5062769;28;20250;-78
2021/01/10 12:10:56;;;;;;;11.80;8.00;;;8.70;99.90;;;;;;5052685;28;20235;-78
2021/01/10 12:13:23;;;;;;;9.27;6.80;;;8.20;99.90;;;;;;5056355;28;20235;-78
2021/01/10 12:15:50;;;;;;;14.67;10.70;;;7.70;99.90;;;;;;5047125;28;20231;-78
2021/01/10 12:18:17;;;;;;;46.23;29.13;;;7.30;99.90;;;;;;5053494;28;20286;-78
2021/01/10 12:20:44;;;;;;;16.40;12.07;;;7.20;99.90;;;;;;5046789;28;20245;-78
2021/01/10 12:23:11;;;;;;;20.33;14.30;;;7.00;99.90;;;;;;5065575;28;20273;-78
2021/01/10 12:25:37;;;;;;;12.37;8.67;;;6.90;99.90;;;;;;5051597;28;20242;-78
2021/01/10 12:28:04;;;;;;;15.63;10.07;;;7.00;99.90;;;;;;5048569;28;20674;-78
2021/01/10 12:30:31;;;;;;;25.80;18.73;;;7.00;99.90;;;;;;5049496;28;20718;-78
2021/01/10 12:32:59;;;;;;;12.47;7.93;;;7.20;99.90;;;;;;5066706;28;20202;-78
2021/01/10 12:35:25;;;;;;;10.47;7.87;;;7.40;99.90;;;;;;5045537;28;20201;-78
2021/01/10 12:37:52;;;;;;;95.13;64.30;;;7.20;99.90;;;;;;5054951;28;20243;-78
2021/01/10 12:40:19;;;;;;;48.50;35.90;;;6.90;99.90;;;;;;5056830;28;20681;-77
2021/01/10 12:42:48;;;;;;;12.93;7.80;;;6.60;99.90;;;;;;5051461;28;20317;-78
2021/01/10 12:45:15;;;;;;;10.47;7.10;;;6.30;99.90;;;;;;5043905;28;20200;-78